Time;durP1;ratioP1;P1;durP2;ratioP2;P2;SDS_P1;SDS_P2;PMS_P1;PMS_P2;Temp;Humidity;BMP_temperature;BMP_pressure;BME280_temperature;BME280_humidity;BME280_pressure;Samples;Min_cycle;Max_cycle;Signal;HPM_P1;HPM_P2
2022/05/01 00:02:01;;;;;;;2.83;2.58;;;;;;;;;;12646606;28;20036;-80
2022/05/01 00:08:04;;;;;;;3.47;3.17;;;;;;;;;;12646421;28;20392;-81
2022/05/01 00:14:05;;;;;;;3.27;2.97;;;;;;;;;;12646174;28;20039;-80
2022/05/01 00:20:07;;;;;;;3.23;2.93;;;;;;;;;;12627681;28;20535;-81
2022/05/01 00:26:09;;;;;;;3.33;3.03;;;;;;;;;;12628346;28;20511;-81
2022/05/01 00:32:11;;;;;;;3.83;3.30;;;;;;;;;;12646024;28;20070;-80
2022/05/01 00:38:13;;;;;;;3.93;3.37;;;;;;;;;;12644928;28;20035;-80
2022/05/01 00:44:16;;;;;;;3.93;3.20;;;;;;;;;;12627200;28;20388;-80
2022/05/01 00:50:18;;;;;;;3.20;2.90;;;;;;;;;;12644343;28;20032;-81
2022/05/01 00:56:20;;;;;;;3.03;2.72;;;;;;;;;;12644412;28;20050;-81
2022/05/01 01:02:22;;;;;;;3.30;3.00;;;;;;;;;;12626177;28;20047;-81
2022/05/01 01:08:24;;;;;;;3.17;2.90;;;;;;;;;;12643847;28;20043;-81
2022/05/01 01:14:26;;;;;;;4.13;3.10;;;;;;;;;;12626097;28;20040;-80
2022/05/01 01:20:31;;;;;;;4.18;3.05;;;;;;;;;;12643710;28;20043;-80
2022/05/01 01:26:34;;;;;;;3.03;2.75;;;;;;;;;;12609041;28;20063;-80
2022/05/01 01:32:39;;;;;;;3.72;3.42;;;;;;;;;;12608938;28;20044;-81
2022/05/01 01:38:41;;;;;;;4.72;3.03;;;;;;;;;;12625756;28;20035;-80
2022/05/01 01:44:43;;;;;;;4.40;3.17;;;;;;;;;;12626407;28;20036;-80
2022/05/01 01:50:54;;;;;;;3.93;3.30;;;;;;;;;;12643665;28;20032;-80
2022/05/01 01:56:55;;;;;;;2.78;2.58;;;;;;;;;;12625799;28;20024;-81
2022/05/01 02:02:58;;;;;;;2.10;2.00;;;;;;;;;;12647740;28;20489;-81
2022/05/01 02:09:06;;;;;;;;;;;;;;;;;;12652858;28;20400;-80
2022/05/01 02:15:07;;;;;;;2.45;1.80;;;;;;;;;;12651827;28;19916;-81
2022/05/01 02:27:49;;;;;;;2.05;1.95;;;;;;;;;;12496741;28;20038;-80
2022/05/01 02:33:51;;;;;;;1.90;1.80;;;;;;;;;;12629891;28;20059;-80
2022/05/01 02:39:53;;;;;;;2.13;2.03;;;;;;;;;;12632951;28;20028;-80
2022/05/01 02:45:54;;;;;;;3.13;2.03;;;;;;;;;;12632719;28;20042;-80
2022/05/01 02:51:56;;;;;;;1.97;1.87;;;;;;;;;;12650227;28;20115;-80
2022/05/01 02:57:58;;;;;;;2.35;1.92;;;;;;;;;;12651402;28;20350;-80
2022/05/01 03:04:00;;;;;;;1.80;1.70;;;;;;;;;;12631684;28;20036;-80
2022/05/01 03:10:01;;;;;;;1.70;1.60;;;;;;;;;;12649525;28;20400;-80
2022/05/01 03:16:04;;;;;;;1.77;1.43;;;;;;;;;;12631798;28;20040;-79
2022/05/01 03:22:13;;;;;;;3.10;1.70;;;;;;;;;;12631008;28;20024;-80
2022/05/01 03:28:14;;;;;;;2.90;1.83;;;;;;;;;;12648932;28;20044;-80
2022/05/01 03:34:17;;;;;;;2.17;1.90;;;;;;;;;;12648807;28;20044;-80
2022/05/01 03:40:19;;;;;;;1.45;1.35;;;;;;;;;;12630699;28;20229;-80
2022/05/01 03:46:22;;;;;;;1.63;1.53;;;;;;;;;;12648264;28;20024;-80
2022/05/01 03:52:24;;;;;;;3.97;1.63;;;;;;;;;;12647515;28;20074;-80
2022/05/01 03:58:25;;;;;;;2.03;1.92;;;;;;;;;;12629380;28;20031;-80
2022/05/01 04:04:27;;;;;;;1.60;1.50;;;;;;;;;;12646966;28;20040;-80
2022/05/01 04:10:29;;;;;;;2.53;1.63;;;;;;;;;;12628618;28;20028;-80
2022/05/01 04:16:31;;;;;;;1.77;1.50;;;;;;;;;;12628260;28;20040;-80
2022/05/01 04:22:39;;;;;;;2.10;1.90;;;;;;;;;;12646004;28;20476;-80
2022/05/01 04:29:36;;;;;;;1.50;1.40;;;;;;;;;;12610880;28;20028;-80
2022/05/01 04:35:04;;;;;;;2.17;1.97;;;;;;;;;;12645394;28;20056;-80
2022/05/01 04:41:06;;;;;;;2.40;1.70;;;;;;;;;;12627151;28;20042;-80
2022/05/01 04:47:08;;;;;;;2.07;1.87;;;;;;;;;;12645049;28;20040;-79
2022/05/01 04:53:11;;;;;;;2.08;1.73;;;;;;;;;;12644825;28;20048;-80
2022/05/01 04:59:13;;;;;;;1.30;1.00;;;;;;;;;;12644818;28;20031;-80
2022/05/01 05:05:15;;;;;;;2.40;1.80;;;;;;;;;;12644078;28;20040;-80
2022/05/01 05:11:16;;;;;;;2.07;1.97;;;;;;;;;;12609161;28;20040;-80
2022/05/01 05:17:19;;;;;;;2.13;1.95;;;;;;;;;;12625959;28;20044;-80
2022/05/01 05:23:21;;;;;;;2.83;2.20;;;;;;;;;;12643328;28;20412;-80
2022/05/01 05:29:22;;;;;;;1.83;1.60;;;;;;;;;;12609308;28;20028;-80
2022/05/01 05:35:24;;;;;;;2.40;2.00;;;;;;;;;;12644311;28;20655;-80
2022/05/01 05:41:26;;;;;;;2.60;1.70;;;;;;;;;;12634859;28;20024;-79
2022/05/01 05:47:28;;;;;;;2.00;1.80;;;;;;;;;;12635367;28;20028;-80
2022/05/01 05:53:30;;;;;;;;;;;;;;;;;;12635262;28;20358;-80
2022/05/01 05:59:31;;;;;;;1.98;1.80;;;;;;;;;;12618255;28;19915;-80
2022/05/01 06:05:33;;;;;;;1.93;1.80;;;;;;;;;;12635053;28;20043;-80
2022/05/01 06:11:35;;;;;;;2.40;1.97;;;;;;;;;;12653037;28;20499;-80
2022/05/01 06:17:40;;;;;;;1.30;1.20;;;;;;;;;;12652013;28;20066;-80
2022/05/01 06:23:42;;;;;;;2.83;2.00;;;;;;;;;;12651848;28;20035;-80
2022/05/01 06:29:44;;;;;;;1.73;1.63;;;;;;;;;;12651508;28;20032;-80
2022/05/01 06:35:50;;;;;;;2.22;1.83;;;;;;;;;;12630373;28;20060;-80
2022/05/01 06:41:52;;;;;;;3.15;2.13;;;;;;;;;;12647947;28;20039;-80
2022/05/01 06:47:53;;;;;;;2.27;2.07;;;;;;;;;;12647369;28;20036;-80
2022/05/01 06:53:55;;;;;;;2.30;2.10;;;;;;;;;;12648117;28;20051;-80
2022/05/01 06:59:57;;;;;;;2.67;2.13;;;;;;;;;;12648058;28;20036;-80
2022/05/01 07:06:02;;;;;;;2.95;2.65;;;;;;;;;;12646923;28;20405;-80
2022/05/01 07:12:04;;;;;;;3.25;3.00;;;;;;;;;;12646686;28;20044;-80
2022/05/01 07:18:06;;;;;;;3.00;2.70;;;;;;;;;;12628560;28;20392;-80
2022/05/01 07:24:07;;;;;;;2.63;2.43;;;;;;;;;;12646317;28;20033;-80
2022/05/01 07:30:09;;;;;;;2.50;2.30;;;;;;;;;;12627849;28;20040;-81
2022/05/01 07:36:11;;;;;;;2.30;2.10;;;;;;;;;;12597850;28;1446326;-80
2022/05/01 07:42:13;;;;;;;3.13;2.50;;;;;;;;;;12647520;28;20274;-80
2022/05/01 07:48:15;;;;;;;2.65;2.20;;;;;;;;;;12629495;28;20129;-80
2022/05/01 07:54:16;;;;;;;1.98;1.88;;;;;;;;;;12629471;28;20057;-80
2022/05/01 08:00:18;;;;;;;2.47;2.20;;;;;;;;;;12612605;28;20381;-80
2022/05/01 08:06:22;;;;;;;2.60;2.40;;;;;;;;;;12645745;28;20051;-80
2022/05/01 08:12:24;;;;;;;3.42;2.38;;;;;;;;;;12646759;28;20036;-80
2022/05/01 08:24:46;;;;;;;2.47;2.28;;;;;;;;;;12646105;28;20036;-80
2022/05/01 08:30:48;;;;;;;2.80;2.43;;;;;;;;;;12646343;28;20508;-80
2022/05/01 08:36:49;;;;;;;2.70;2.13;;;;;;;;;;12627231;28;20048;-80
2022/05/01 08:42:51;;;;;;;3.63;2.73;;;;;;;;;;12644926;28;20270;-80
2022/05/01 08:49:06;;;;;;;3.10;2.30;;;;;;;;;;12626525;28;20035;-80
2022/05/01 08:55:08;;;;;;;2.33;2.13;;;;;;;;;;12644448;28;20044;-80
2022/05/01 09:01:11;;;;;;;2.13;1.92;;;;;;;;;;12644195;28;20392;-80
2022/05/01 09:07:13;;;;;;;3.13;2.50;;;;;;;;;;12643838;28;20048;-80
2022/05/01 09:13:15;;;;;;;3.63;2.35;;;;;;;;;;12625813;28;20048;-80
2022/05/01 09:19:30;;;;;;;2.50;2.30;;;;;;;;;;12609417;28;20122;-80
2022/05/01 09:25:32;;;;;;;1.98;1.83;;;;;;;;;;12643694;28;20032;-80
2022/05/01 09:31:45;;;;;;;1.90;1.80;;;;;;;;;;12643893;28;20489;-80
2022/05/01 09:37:47;;;;;;;1.90;1.80;;;;;;;;;;12643315;28;20416;-80
2022/05/01 09:43:49;;;;;;;2.25;2.05;;;;;;;;;;12625309;28;20040;-80
2022/05/01 09:49:51;;;;;;;2.60;2.40;;;;;;;;;;12625081;28;20381;-80
2022/05/01 09:56:01;;;;;;;2.08;1.95;;;;;;;;;;12643312;28;20048;-79
2022/05/01 10:02:06;;;;;;;2.33;2.13;;;;;;;;;;12642707;28;20032;-79
2022/05/01 10:08:08;;;;;;;1.90;1.80;;;;;;;;;;12642868;28;20039;-80
2022/05/01 10:14:10;;;;;;;2.50;2.30;;;;;;;;;;12642414;28;20051;-80
2022/05/01 10:20:13;;;;;;;2.45;2.25;;;;;;;;;;12641436;28;20473;-80
2022/05/01 10:26:15;;;;;;;2.53;2.38;;;;;;;;;;12649071;28;20047;-79
2022/05/01 10:32:23;;;;;;;2.70;2.28;;;;;;;;;;12633478;28;20056;-79
2022/05/01 10:38:27;;;;;;;2.33;2.10;;;;;;;;;;12651729;28;20032;-79
2022/05/01 10:44:30;;;;;;;2.40;2.20;;;;;;;;;;12652075;28;20028;-80
2022/05/01 10:50:32;;;;;;;2.72;2.53;;;;;;;;;;12632469;28;20491;-80
2022/05/01 10:56:34;;;;;;;2.80;2.60;;;;;;;;;;12632551;28;20044;-79
2022/05/01 11:02:40;;;;;;;2.67;2.47;;;;;;;;;;12651288;28;20036;-80
2022/05/01 11:08:42;;;;;;;1.85;1.75;;;;;;;;;;12631660;28;20039;-80
2022/05/01 11:15:04;;;;;;;2.03;1.90;;;;;;;;;;12649268;28;20044;-80
2022/05/01 11:21:21;;;;;;;1.83;1.73;;;;;;;;;;12649324;28;20028;-80
2022/05/01 11:27:23;;;;;;;2.20;2.00;;;;;;;;;;12648744;28;20031;-80
2022/05/01 11:33:24;;;;;;;3.03;2.78;;;;;;;;;;12630149;28;20408;-80
2022/05/01 11:39:45;;;;;;;2.80;2.60;;;;;;;;;;12629326;28;20409;-81
2022/05/01 11:45:47;;;;;;;2.30;2.10;;;;;;;;;;12630329;28;20032;-80
2022/05/01 11:51:52;;;;;;;3.75;3.45;;;;;;;;;;12629669;28;20028;-80
2022/05/01 12:04:26;;;;;;;2.90;2.70;;;;;;;;;;12647214;28;20044;-80
2022/05/01 12:10:28;;;;;;;2.28;2.05;;;;;;;;;;12646889;28;20484;-80
2022/05/01 12:16:29;;;;;;;2.40;2.30;;;;;;;;;;12628142;28;20061;-80
2022/05/01 12:22:37;;;;;;;1.88;1.77;;;;;;;;;;12628276;28;20039;-81
2022/05/01 12:28:39;;;;;;;2.42;2.10;;;;;;;;;;12611375;28;20039;-81
2022/05/01 12:34:49;;;;;;;1.77;1.65;;;;;;;;;;12645814;28;20079;-80
2022/05/01 12:47:29;;;;;;;3.47;2.25;;;;;;;;;;12626446;28;20036;-80
2022/05/01 12:53:31;;;;;;;2.30;2.10;;;;;;;;;;12626327;28;20044;-81
2022/05/01 12:59:33;;;;;;;1.95;1.83;;;;;;;;;;12610850;28;20479;-80
2022/05/01 13:05:35;;;;;;;2.15;1.95;;;;;;;;;;12626503;28;20032;-80
2022/05/01 13:11:37;;;;;;;1.65;1.55;;;;;;;;;;12626165;28;20032;-80
2022/05/01 13:17:39;;;;;;;1.60;1.50;;;;;;;;;;12644396;28;20583;-80
2022/05/01 13:23:42;;;;;;;1.58;1.48;;;;;;;;;;12643862;28;20035;-80
2022/05/01 13:29:43;;;;;;;2.83;1.98;;;;;;;;;;12626000;28;20050;-79
2022/05/01 13:35:45;;;;;;;1.60;1.50;;;;;;;;;;12625347;28;20067;-80
2022/05/01 13:48:07;;;;;;;1.98;1.77;;;;;;;;;;12643604;28;19908;-80
2022/05/01 13:54:09;;;;;;;2.10;1.90;;;;;;;;;;12624800;28;20036;-79
2022/05/01 14:00:12;;;;;;;1.30;1.30;;;;;;;;;;12614546;28;20452;-80
2022/05/01 14:06:14;;;;;;;1.83;1.73;;;;;;;;;;12634715;28;20411;-79
2022/05/01 14:12:16;;;;;;;2.47;2.28;;;;;;;;;;12634291;28;20039;-79
2022/05/01 14:18:19;;;;;;;4.60;3.42;;;;;;;;;;12617591;28;20043;-78
2022/05/01 14:24:21;;;;;;;4.38;3.10;;;;;;;;;;12633557;28;20032;-79
2022/05/01 14:30:23;;;;;;;3.25;2.97;;;;;;;;;;12617081;28;20028;-78
2022/05/01 14:36:26;;;;;;;3.00;2.80;;;;;;;;;;12632897;28;20044;-78
2022/05/01 14:42:31;;;;;;;3.00;2.80;;;;;;;;;;12615884;28;20043;-77
2022/05/01 14:48:51;;;;;;;2.83;2.63;;;;;;;;;;12650759;28;20415;-78
2022/05/01 14:54:55;;;;;;;2.40;2.28;;;;;;;;;;12632139;28;20048;-79
2022/05/01 15:07:20;;;;;;;1.60;1.50;;;;;;;;;;12648452;28;20047;-79
2022/05/01 15:13:22;;;;;;;;;;;;;;;;;;12631379;28;20044;-78
2022/05/01 15:19:32;;;;;;;2.63;2.42;;;;;;;;;;12648982;28;19908;-79
2022/05/01 15:25:40;;;;;;;1.88;1.77;;;;;;;;;;12649017;28;20028;-79
2022/05/01 15:31:43;;;;;;;2.90;2.70;;;;;;;;;;12614560;28;20056;-79
2022/05/01 15:37:46;;;;;;;1.95;1.85;;;;;;;;;;12613805;28;20511;-79
2022/05/01 15:43:48;;;;;;;2.63;2.15;;;;;;;;;;12630455;28;20502;-79
2022/05/01 15:56:11;;;;;;;3.53;3.22;;;;;;;;;;12647488;28;20457;-79
2022/05/01 16:02:14;;;;;;;3.15;2.95;;;;;;;;;;12648102;28;20039;-79
2022/05/01 16:08:33;;;;;;;3.88;3.58;;;;;;;;;;12647439;28;20461;-79
2022/05/01 16:14:41;;;;;;;4.07;3.78;;;;;;;;;;12612099;28;20036;-79
2022/05/01 16:20:45;;;;;;;4.43;4.13;;;;;;;;;;12646218;28;20032;-78
2022/05/01 16:26:48;;;;;;;3.45;3.15;;;;;;;;;;12628401;28;20472;-79
2022/05/01 16:32:56;;;;;;;3.30;3.08;;;;;;;;;;12611445;28;20503;-78
2022/05/01 16:38:59;;;;;;;4.00;3.70;;;;;;;;;;12611601;28;20043;-79
2022/05/01 16:45:02;;;;;;;3.92;3.45;;;;;;;;;;12627503;28;20031;-79
2022/05/01 16:51:08;;;;;;;3.10;2.90;;;;;;;;;;12645209;28;20401;-79
2022/05/01 16:57:10;;;;;;;3.25;3.03;;;;;;;;;;12626976;28;20046;-79
2022/05/01 17:03:44;;;;;;;2.70;2.50;;;;;;;;;;12645974;28;20032;-79
2022/05/01 17:09:53;;;;;;;3.00;2.67;;;;;;;;;;12604979;28;20036;-79
2022/05/01 17:16:01;;;;;;;3.28;2.83;;;;;;;;;;12626049;28;20048;-79
2022/05/01 17:22:11;;;;;;;2.83;2.63;;;;;;;;;;12626011;28;20036;-80
2022/05/01 17:28:14;;;;;;;2.67;2.47;;;;;;;;;;12625587;28;20393;-78
2022/05/01 17:34:19;;;;;;;3.50;3.20;;;;;;;;;;12631395;28;20059;-79
2022/05/01 17:40:22;;;;;;;3.33;3.03;;;;;;;;;;12636486;28;20043;-79
2022/05/01 17:46:24;;;;;;;4.60;4.20;;;;;;;;;;12635904;28;20032;-79
2022/05/01 17:52:27;;;;;;;4.72;3.33;;;;;;;;;;12635314;28;20032;-80
2022/05/01 17:58:29;;;;;;;2.75;2.55;;;;;;;;;;12635167;28;20036;-80
2022/05/01 18:11:22;;;;;;;3.00;2.70;;;;;;;;;;12634486;28;20377;-80
2022/05/01 18:17:44;;;;;;;2.75;2.53;;;;;;;;;;12651827;28;20070;-79
2022/05/01 18:24:07;;;;;;;3.13;2.60;;;;;;;;;;12633899;28;20032;-79
2022/05/01 18:30:21;;;;;;;3.42;2.85;;;;;;;;;;12634109;28;20036;-79
2022/05/01 18:36:33;;;;;;;2.97;2.78;;;;;;;;;;12651341;28;20048;-79
2022/05/01 18:42:36;;;;;;;2.70;2.50;;;;;;;;;;12651581;28;20381;-78
2022/05/01 18:48:38;;;;;;;3.40;3.10;;;;;;;;;;12616018;28;20385;-79
2022/05/01 18:54:40;;;;;;;2.08;1.98;;;;;;;;;;12632850;28;20059;-79
2022/05/01 19:00:42;;;;;;;3.05;2.85;;;;;;;;;;12632893;28;20040;-80
2022/05/01 19:07:07;;;;;;;2.63;2.43;;;;;;;;;;12632213;28;20028;-79
2022/05/01 19:13:13;;;;;;;3.75;3.20;;;;;;;;;;12631619;28;20048;-79
2022/05/01 19:19:19;;;;;;;3.65;3.30;;;;;;;;;;12631226;28;20039;-79
2022/05/01 19:32:00;;;;;;;3.42;3.13;;;;;;;;;;12631515;28;20048;-79
2022/05/01 19:38:11;;;;;;;3.60;3.30;;;;;;;;;;12630392;28;20431;-80
2022/05/01 19:44:45;;;;;;;4.60;3.72;;;;;;;;;;12630739;28;20040;-80
2022/05/01 19:57:34;;;;;;;4.18;3.78;;;;;;;;;;12618779;28;20507;-80
2022/05/01 20:03:39;;;;;;;3.83;3.47;;;;;;;;;;12629633;28;20043;-79
2022/05/01 20:09:41;;;;;;;4.10;3.80;;;;;;;;;;12629552;28;20047;-79
2022/05/01 20:15:49;;;;;;;4.05;3.65;;;;;;;;;;12628430;28;20048;-79
2022/05/01 20:22:08;;;;;;;3.72;3.42;;;;;;;;;;12628320;28;20035;-79
2022/05/01 20:28:16;;;;;;;2.45;2.25;;;;;;;;;;12646268;28;20408;-79
2022/05/01 20:34:27;;;;;;;4.82;3.90;;;;;;;;;;12627417;28;20508;-79
2022/05/01 20:40:31;;;;;;;3.17;2.88;;;;;;;;;;12645485;28;20035;-79
2022/05/01 20:46:39;;;;;;;3.55;3.25;;;;;;;;;;12645638;28;20068;-79
2022/05/01 20:52:53;;;;;;;4.15;3.85;;;;;;;;;;12627129;28;20032;-80
2022/05/01 20:58:55;;;;;;;4.25;3.55;;;;;;;;;;12626236;28;20024;-79
2022/05/01 21:04:57;;;;;;;;;;;;;;;;;;12626737;28;20386;-79
2022/05/01 21:11:00;;;;;;;3.70;3.10;;;;;;;;;;12626305;28;20258;-79
2022/05/01 21:17:01;;;;;;;3.83;3.53;;;;;;;;;;12609350;28;20158;-80
2022/05/01 21:23:04;;;;;;;2.87;2.67;;;;;;;;;;12610013;28;20032;-79
2022/05/01 21:35:27;;;;;;;3.42;3.13;;;;;;;;;;12625420;28;20052;-79
2022/05/01 21:41:29;;;;;;;3.83;3.53;;;;;;;;;;12625919;28;20040;-79
2022/05/01 21:47:30;;;;;;;3.38;2.80;;;;;;;;;;12625567;28;20758;-79
2022/05/01 21:53:33;;;;;;;2.80;2.50;;;;;;;;;;12643631;28;20051;-79
2022/05/01 21:59:35;;;;;;;2.90;2.70;;;;;;;;;;12644040;28;20380;-79
2022/05/01 22:05:37;;;;;;;4.57;3.40;;;;;;;;;;12625581;28;20051;-79
2022/05/01 22:11:39;;;;;;;3.33;3.10;;;;;;;;;;12642907;28;20107;-79
2022/05/01 22:17:42;;;;;;;3.30;3.08;;;;;;;;;;12624491;28;20439;-79
2022/05/01 22:23:44;;;;;;;2.78;2.55;;;;;;;;;;12652118;28;20032;-79
2022/05/01 22:29:46;;;;;;;3.67;3.37;;;;;;;;;;12617522;28;20051;-79
2022/05/01 22:42:09;;;;;;;3.78;3.47;;;;;;;;;;12632871;28;20028;-79
2022/05/01 22:48:12;;;;;;;3.97;3.67;;;;;;;;;;12615901;28;20040;-79
2022/05/01 22:54:14;;;;;;;3.47;2.92;;;;;;;;;;12651070;28;20050;-79
2022/05/01 23:00:16;;;;;;;3.80;3.50;;;;;;;;;;12632794;28;20493;-79
2022/05/01 23:06:18;;;;;;;3.50;3.20;;;;;;;;;;12650213;28;20032;-80
2022/05/01 23:12:20;;;;;;;3.57;3.27;;;;;;;;;;12650476;28;20381;-79
2022/05/01 23:18:22;;;;;;;3.47;3.17;;;;;;;;;;12631484;28;20650;-79
2022/05/01 23:24:24;;;;;;;4.15;3.75;;;;;;;;;;12615476;28;20063;-79
2022/05/01 23:30:38;;;;;;;5.28;4.78;;;;;;;;;;12631233;28;20043;-79
2022/05/01 23:36:40;;;;;;;5.45;4.90;;;;;;;;;;12648770;28;20432;-79
2022/05/01 23:42:42;;;;;;;5.10;4.70;;;;;;;;;;12648414;28;20039;-79
2022/05/01 23:48:44;;;;;;;4.97;4.57;;;;;;;;;;12629920;28;20055;-80
2022/05/01 23:54:45;;;;;;;5.22;4.72;;;;;;;;;;12629658;28;20058;-80
